sensor_id;sensor_type;location;lat;lon;timestamp;temperature;humidity
18779;DHT22;9518;51.720;14.384;2023-04-03T00:00:00;1.20;1.00
18779;DHT22;9518;51.720;14.384;2023-04-03T00:02:27;1.10;1.00
18779;DHT22;9518;51.720;14.384;2023-04-03T00:04:54;1.10;1.00
18779;DHT22;9518;51.720;14.384;2023-04-03T00:07:21;1.10;1.00
18779;DHT22;9518;51.720;14.384;2023-04-03T00:09:48;1.00;1.00
18779;DHT22;9518;51.720;14.384;2023-04-03T00:12:16;1.00;97.10
18779;DHT22;9518;51.720;14.384;2023-04-03T00:14:43;0.90;99.90
18779;DHT22;9518;51.720;14.384;2023-04-03T00:17:10;0.90;99.90
18779;DHT22;9518;51.720;14.384;2023-04-03T00:19:37;0.80;99.90
18779;DHT22;9518;51.720;14.384;2023-04-03T00:22:04;0.80;99.90
18779;DHT22;9518;51.720;14.384;2023-04-03T00:24:31;0.80;99.90
18779;DHT22;9518;51.720;14.384;2023-04-03T00:26:59;0.80;99.90
18779;DHT22;9518;51.720;14.384;2023-04-03T00:29:27;0.70;99.90
18779;DHT22;9518;51.720;14.384;2023-04-03T00:31:54;0.70;99.90
18779;DHT22;9518;51.720;14.384;2023-04-03T00:34:21;0.70;99.90
18779;DHT22;9518;51.720;14.384;2023-04-03T00:36:49;0.60;99.90
18779;DHT22;9518;51.720;14.384;2023-04-03T00:39:17;0.50;99.90
18779;DHT22;9518;51.720;14.384;2023-04-03T00:41:44;0.40;99.90
18779;DHT22;9518;51.720;14.384;2023-04-03T00:44:21;0.20;1.00
18779;DHT22;9518;51.720;14.384;2023-04-03T00:46:50;0.20;1.00
18779;DHT22;9518;51.720;14.384;2023-04-03T00:49:17;0.10;1.00
18779;DHT22;9518;51.720;14.384;2023-04-03T00:51:45;0.10;1.00
18779;DHT22;9518;51.720;14.384;2023-04-03T00:54:12;0.00;1.00
18779;DHT22;9518;51.720;14.384;2023-04-03T00:56:40;-0.10;1.00
18779;DHT22;9518;51.720;14.384;2023-04-03T00:59:11;-0.20;1.00
18779;DHT22;9518;51.720;14.384;2023-04-03T01:01:39;-0.20;1.00
18779;DHT22;9518;51.720;14.384;2023-04-03T01:04:28;-0.30;1.00
18779;DHT22;9518;51.720;14.384;2023-04-03T01:06:58;-0.40;99.90
18779;DHT22;9518;51.720;14.384;2023-04-03T01:09:28;-0.30;43.30
18779;DHT22;9518;51.720;14.384;2023-04-03T01:12:13;-0.40;99.90
18779;DHT22;9518;51.720;14.384;2023-04-03T01:14:41;-0.40;99.90
18779;DHT22;9518;51.720;14.384;2023-04-03T01:17:26;-0.50;1.00
18779;DHT22;9518;51.720;14.384;2023-04-03T01:20:02;-0.50;1.00
18779;DHT22;9518;51.720;14.384;2023-04-03T01:22:41;-0.60;1.00
18779;DHT22;9518;51.720;14.384;2023-04-03T01:25:11;-0.60;1.00
18779;DHT22;9518;51.720;14.384;2023-04-03T01:27:38;-0.60;1.00
18779;DHT22;9518;51.720;14.384;2023-04-03T01:30:06;-0.70;75.40
18779;DHT22;9518;51.720;14.384;2023-04-03T01:32:35;-0.80;1.00
18779;DHT22;9518;51.720;14.384;2023-04-03T01:35:02;-0.80;1.00
18779;DHT22;9518;51.720;14.384;2023-04-03T01:37:29;-0.90;1.00
18779;DHT22;9518;51.720;14.384;2023-04-03T01:39:56;-0.90;99.90
18779;DHT22;9518;51.720;14.384;2023-04-03T01:42:23;-0.90;1.00
18779;DHT22;9518;51.720;14.384;2023-04-03T01:44:50;-1.00;99.90
18779;DHT22;9518;51.720;14.384;2023-04-03T01:47:17;-1.00;1.00
18779;DHT22;9518;51.720;14.384;2023-04-03T01:49:46;-0.90;1.00
18779;DHT22;9518;51.720;14.384;2023-04-03T01:52:13;-0.90;1.00
18779;DHT22;9518;51.720;14.384;2023-04-03T01:54:40;-0.90;1.00
18779;DHT22;9518;51.720;14.384;2023-04-03T01:57:07;-0.90;1.00
18779;DHT22;9518;51.720;14.384;2023-04-03T01:59:34;-0.90;1.00
18779;DHT22;9518;51.720;14.384;2023-04-03T02:02:01;-0.90;1.00
18779;DHT22;9518;51.720;14.384;2023-04-03T02:04:28;-0.90;1.00
18779;DHT22;9518;51.720;14.384;2023-04-03T02:06:57;-1.00;99.90
18779;DHT22;9518;51.720;14.384;2023-04-03T02:09:24;-1.10;1.00
18779;DHT22;9518;51.720;14.384;2023-04-03T02:11:52;-1.10;1.00
18779;DHT22;9518;51.720;14.384;2023-04-03T02:14:19;-1.10;1.00
18779;DHT22;9518;51.720;14.384;2023-04-03T02:16:47;-1.10;99.90
18779;DHT22;9518;51.720;14.384;2023-04-03T02:19:14;-1.20;55.30
18779;DHT22;9518;51.720;14.384;2023-04-03T02:21:41;-1.20;99.90
18779;DHT22;9518;51.720;14.384;2023-04-03T02:24:10;-1.20;99.90
18779;DHT22;9518;51.720;14.384;2023-04-03T02:26:37;-1.20;99.90
18779;DHT22;9518;51.720;14.384;2023-04-03T02:29:04;-1.30;99.90
18779;DHT22;9518;51.720;14.384;2023-04-03T02:31:31;-1.20;99.90
18779;DHT22;9518;51.720;14.384;2023-04-03T02:33:58;-1.20;1.00
18779;DHT22;9518;51.720;14.384;2023-04-03T02:36:25;-1.30;99.90
18779;DHT22;9518;51.720;14.384;2023-04-03T02:38:52;-1.30;99.90
18779;DHT22;9518;51.720;14.384;2023-04-03T02:41:20;-1.50;1.00
18779;DHT22;9518;51.720;14.384;2023-04-03T02:43:48;-1.50;1.00
18779;DHT22;9518;51.720;14.384;2023-04-03T02:46:15;-1.60;1.00
18779;DHT22;9518;51.720;14.384;2023-04-03T02:48:42;-1.60;1.00
18779;DHT22;9518;51.720;14.384;2023-04-03T02:51:09;-1.70;99.90
18779;DHT22;9518;51.720;14.384;2023-04-03T02:53:36;-1.70;1.00
18779;DHT22;9518;51.720;14.384;2023-04-03T02:56:03;-1.70;1.00
18779;DHT22;9518;51.720;14.384;2023-04-03T02:58:32;-1.80;1.00
18779;DHT22;9518;51.720;14.384;2023-04-03T03:00:59;-1.80;1.00
18779;DHT22;9518;51.720;14.384;2023-04-03T03:03:26;-1.90;1.00
18779;DHT22;9518;51.720;14.384;2023-04-03T03:06:01;-1.90;1.00
18779;DHT22;9518;51.720;14.384;2023-04-03T03:08:29;-2.00;1.00
18779;DHT22;9518;51.720;14.384;2023-04-03T03:10:56;-2.00;1.00
18779;DHT22;9518;51.720;14.384;2023-04-03T03:13:23;-1.90;1.00
18779;DHT22;9518;51.720;14.384;2023-04-03T03:15:51;-1.90;1.00
18779;DHT22;9518;51.720;14.384;2023-04-03T03:18:19;-1.90;1.00
18779;DHT22;9518;51.720;14.384;2023-04-03T03:20:46;-1.90;1.00
18779;DHT22;9518;51.720;14.384;2023-04-03T03:23:13;-1.90;1.00
18779;DHT22;9518;51.720;14.384;2023-04-03T03:25:40;-1.90;1.00
18779;DHT22;9518;51.720;14.384;2023-04-03T03:28:07;-1.80;1.00
18779;DHT22;9518;51.720;14.384;2023-04-03T03:30:34;-1.80;1.00
18779;DHT22;9518;51.720;14.384;2023-04-03T03:33:03;-1.80;1.00
18779;DHT22;9518;51.720;14.384;2023-04-03T03:35:30;-1.80;1.00
18779;DHT22;9518;51.720;14.384;2023-04-03T03:37:57;-1.90;1.00
18779;DHT22;9518;51.720;14.384;2023-04-03T03:40:24;-1.90;1.00
18779;DHT22;9518;51.720;14.384;2023-04-03T03:42:51;-2.00;1.00
18779;DHT22;9518;51.720;14.384;2023-04-03T03:45:19;-2.00;1.00
18779;DHT22;9518;51.720;14.384;2023-04-03T03:47:46;-2.00;1.00
18779;DHT22;9518;51.720;14.384;2023-04-03T03:50:14;-2.00;1.00
18779;DHT22;9518;51.720;14.384;2023-04-03T03:52:41;-1.90;1.00
18779;DHT22;9518;51.720;14.384;2023-04-03T03:55:09;-1.90;1.00
18779;DHT22;9518;51.720;14.384;2023-04-03T03:57:36;-1.90;1.00
18779;DHT22;9518;51.720;14.384;2023-04-03T04:00:04;-1.90;1.00
18779;DHT22;9518;51.720;14.384;2023-04-03T04:02:32;-1.90;1.00
18779;DHT22;9518;51.720;14.384;2023-04-03T04:04:59;-1.90;99.90
18779;DHT22;9518;51.720;14.384;2023-04-03T04:07:28;-2.00;1.00
18779;DHT22;9518;51.720;14.384;2023-04-03T04:09:55;-1.90;1.00
18779;DHT22;9518;51.720;14.384;2023-04-03T04:12:22;-1.90;1.00
18779;DHT22;9518;51.720;14.384;2023-04-03T04:14:49;-1.90;1.00
18779;DHT22;9518;51.720;14.384;2023-04-03T04:17:16;-2.00;1.00
18779;DHT22;9518;51.720;14.384;2023-04-03T04:19:43;-2.10;1.00
18779;DHT22;9518;51.720;14.384;2023-04-03T04:22:10;-2.00;1.00
18779;DHT22;9518;51.720;14.384;2023-04-03T04:24:39;-2.10;1.00
18779;DHT22;9518;51.720;14.384;2023-04-03T04:27:06;-2.10;1.00
18779;DHT22;9518;51.720;14.384;2023-04-03T04:29:33;-2.10;1.00
18779;DHT22;9518;51.720;14.384;2023-04-03T04:32:02;-2.10;1.00
18779;DHT22;9518;51.720;14.384;2023-04-03T04:34:29;-2.10;1.00
18779;DHT22;9518;51.720;14.384;2023-04-03T04:36:56;-2.20;1.00
18779;DHT22;9518;51.720;14.384;2023-04-03T04:39:23;-2.20;1.00
18779;DHT22;9518;51.720;14.384;2023-04-03T04:41:52;-2.20;1.00
18779;DHT22;9518;51.720;14.384;2023-04-03T04:44:19;-2.20;1.00
18779;DHT22;9518;51.720;14.384;2023-04-03T04:46:46;-2.10;1.00
18779;DHT22;9518;51.720;14.384;2023-04-03T04:49:13;-2.00;1.00
18779;DHT22;9518;51.720;14.384;2023-04-03T04:51:40;-2.00;1.00
18779;DHT22;9518;51.720;14.384;2023-04-03T04:54:07;-1.90;1.00
18779;DHT22;9518;51.720;14.384;2023-04-03T04:56:35;-1.80;1.00
18779;DHT22;9518;51.720;14.384;2023-04-03T04:59:03;-1.80;1.00
18779;DHT22;9518;51.720;14.384;2023-04-03T05:01:30;-1.80;1.00
18779;DHT22;9518;51.720;14.384;2023-04-03T05:03:57;-1.70;1.00
18779;DHT22;9518;51.720;14.384;2023-04-03T05:06:24;-1.60;1.00
18779;DHT22;9518;51.720;14.384;2023-04-03T05:08:51;-1.50;1.00
18779;DHT22;9518;51.720;14.384;2023-04-03T05:11:18;-1.40;99.90
18779;DHT22;9518;51.720;14.384;2023-04-03T05:13:45;-1.40;99.90
18779;DHT22;9518;51.720;14.384;2023-04-03T05:16:14;-1.30;1.00
18779;DHT22;9518;51.720;14.384;2023-04-03T05:18:41;-1.30;99.90
18779;DHT22;9518;51.720;14.384;2023-04-03T05:21:08;-1.20;1.00
18779;DHT22;9518;51.720;14.384;2023-04-03T05:23:35;-1.10;1.00
18779;DHT22;9518;51.720;14.384;2023-04-03T05:26:03;-1.00;1.00
18779;DHT22;9518;51.720;14.384;2023-04-03T05:28:30;-0.90;1.00
18779;DHT22;9518;51.720;14.384;2023-04-03T05:30:58;-0.70;99.90
18779;DHT22;9518;51.720;14.384;2023-04-03T05:33:27;-0.70;99.90
18779;DHT22;9518;51.720;14.384;2023-04-03T05:35:54;-0.60;1.00
18779;DHT22;9518;51.720;14.384;2023-04-03T05:38:21;-0.50;1.00
18779;DHT22;9518;51.720;14.384;2023-04-03T05:40:48;-0.50;99.90
18779;DHT22;9518;51.720;14.384;2023-04-03T05:43:15;-0.50;99.90
18779;DHT22;9518;51.720;14.384;2023-04-03T05:45:44;-0.40;99.90
18779;DHT22;9518;51.720;14.384;2023-04-03T05:48:11;-0.40;55.40
18779;DHT22;9518;51.720;14.384;2023-04-03T05:50:40;-0.30;1.00
18779;DHT22;9518;51.720;14.384;2023-04-03T05:53:14;-0.20;1.00
18779;DHT22;9518;51.720;14.384;2023-04-03T05:55:42;-0.20;1.00
18779;DHT22;9518;51.720;14.384;2023-04-03T05:58:09;-0.10;1.00
18779;DHT22;9518;51.720;14.384;2023-04-03T06:00:36;0.00;1.00
18779;DHT22;9518;51.720;14.384;2023-04-03T06:03:03;0.10;1.00
18779;DHT22;9518;51.720;14.384;2023-04-03T06:05:30;0.10;1.00
18779;DHT22;9518;51.720;14.384;2023-04-03T06:07:59;0.20;1.00
18779;DHT22;9518;51.720;14.384;2023-04-03T06:10:26;0.30;1.00
18779;DHT22;9518;51.720;14.384;2023-04-03T06:12:53;0.40;1.00
18779;DHT22;9518;51.720;14.384;2023-04-03T06:15:20;0.50;1.00
18779;DHT22;9518;51.720;14.384;2023-04-03T06:17:47;0.50;1.00
18779;DHT22;9518;51.720;14.384;2023-04-03T06:20:14;0.60;1.00
18779;DHT22;9518;51.720;14.384;2023-04-03T06:22:41;0.70;1.00
18779;DHT22;9518;51.720;14.384;2023-04-03T06:25:10;0.80;99.90
18779;DHT22;9518;51.720;14.384;2023-04-03T06:27:38;0.90;1.00
18779;DHT22;9518;51.720;14.384;2023-04-03T06:30:06;1.00;99.90
18779;DHT22;9518;51.720;14.384;2023-04-03T06:32:33;1.00;99.90
18779;DHT22;9518;51.720;14.384;2023-04-03T06:35:00;1.10;99.90
18779;DHT22;9518;51.720;14.384;2023-04-03T06:37:27;1.20;99.90
18779;DHT22;9518;51.720;14.384;2023-04-03T06:39:56;1.30;99.90
18779;DHT22;9518;51.720;14.384;2023-04-03T06:42:25;1.40;99.90
18779;DHT22;9518;51.720;14.384;2023-04-03T06:44:52;1.50;37.60
18779;DHT22;9518;51.720;14.384;2023-04-03T06:47:19;1.60;1.00
18779;DHT22;9518;51.720;14.384;2023-04-03T06:49:46;1.60;1.00
18779;DHT22;9518;51.720;14.384;2023-04-03T06:52:13;1.70;1.00
18779;DHT22;9518;51.720;14.384;2023-04-03T06:54:41;1.70;1.00
18779;DHT22;9518;51.720;14.384;2023-04-03T06:57:08;1.80;1.00
18779;DHT22;9518;51.720;14.384;2023-04-03T06:59:39;1.80;1.00
18779;DHT22;9518;51.720;14.384;2023-04-03T07:02:06;1.90;1.00
18779;DHT22;9518;51.720;14.384;2023-04-03T07:04:33;2.10;1.00
18779;DHT22;9518;51.720;14.384;2023-04-03T07:07:01;2.20;1.00
18779;DHT22;9518;51.720;14.384;2023-04-03T07:09:28;2.40;1.00
18779;DHT22;9518;51.720;14.384;2023-04-03T07:11:56;2.40;1.00
18779;DHT22;9518;51.720;14.384;2023-04-03T07:14:23;2.40;1.00
18779;DHT22;9518;51.720;14.384;2023-04-03T07:16:52;2.50;1.00
18779;DHT22;9518;51.720;14.384;2023-04-03T07:19:18;2.50;1.00
18779;DHT22;9518;51.720;14.384;2023-04-03T07:21:46;2.70;1.00
18779;DHT22;9518;51.720;14.384;2023-04-03T07:24:13;2.60;1.00
18779;DHT22;9518;51.720;14.384;2023-04-03T07:26:40;2.70;1.00
18779;DHT22;9518;51.720;14.384;2023-04-03T07:29:08;2.90;1.00
18779;DHT22;9518;51.720;14.384;2023-04-03T07:31:36;3.00;1.00
18779;DHT22;9518;51.720;14.384;2023-04-03T07:34:05;3.10;1.00
18779;DHT22;9518;51.720;14.384;2023-04-03T07:36:32;3.20;1.00
18779;DHT22;9518;51.720;14.384;2023-04-03T07:38:59;3.20;1.00
18779;DHT22;9518;51.720;14.384;2023-04-03T07:41:26;3.30;1.00
18779;DHT22;9518;51.720;14.384;2023-04-03T07:43:54;3.30;1.00
18779;DHT22;9518;51.720;14.384;2023-04-03T07:46:22;3.30;1.00
18779;DHT22;9518;51.720;14.384;2023-04-03T07:48:49;3.50;1.00
18779;DHT22;9518;51.720;14.384;2023-04-03T07:51:17;3.80;1.00
18779;DHT22;9518;51.720;14.384;2023-04-03T07:53:45;4.00;1.00
18779;DHT22;9518;51.720;14.384;2023-04-03T07:56:12;4.20;1.00
18779;DHT22;9518;51.720;14.384;2023-04-03T07:58:39;4.10;1.00
18779;DHT22;9518;51.720;14.384;2023-04-03T08:01:06;4.00;1.00
18779;DHT22;9518;51.720;14.384;2023-04-03T08:03:33;4.10;1.00
18779;DHT22;9518;51.720;14.384;2023-04-03T08:06:04;4.20;1.00
18779;DHT22;9518;51.720;14.384;2023-04-03T08:08:33;3.90;1.00
18779;DHT22;9518;51.720;14.384;2023-04-03T08:11:02;3.80;1.00
18779;DHT22;9518;51.720;14.384;2023-04-03T08:13:31;4.00;1.00
18779;DHT22;9518;51.720;14.384;2023-04-03T08:16:08;4.20;1.00
18779;DHT22;9518;51.720;14.384;2023-04-03T08:18:36;4.50;1.00
18779;DHT22;9518;51.720;14.384;2023-04-03T08:21:08;4.60;1.00
18779;DHT22;9518;51.720;14.384;2023-04-03T08:23:36;4.50;1.00
18779;DHT22;9518;51.720;14.384;2023-04-03T08:26:08;4.70;1.00
18779;DHT22;9518;51.720;14.384;2023-04-03T08:28:36;4.50;1.00
18779;DHT22;9518;51.720;14.384;2023-04-03T08:31:04;4.20;1.00
18779;DHT22;9518;51.720;14.384;2023-04-03T08:33:33;4.10;1.00
18779;DHT22;9518;51.720;14.384;2023-04-03T08:36:02;4.10;1.00
18779;DHT22;9518;51.720;14.384;2023-04-03T08:38:29;4.50;1.00
18779;DHT22;9518;51.720;14.384;2023-04-03T08:41:04;4.50;1.00
18779;DHT22;9518;51.720;14.384;2023-04-03T08:43:38;4.20;1.00
18779;DHT22;9518;51.720;14.384;2023-04-03T08:46:06;4.30;1.00
18779;DHT22;9518;51.720;14.384;2023-04-03T08:48:41;4.60;1.00
18779;DHT22;9518;51.720;14.384;2023-04-03T08:51:13;4.80;1.00
18779;DHT22;9518;51.720;14.384;2023-04-03T08:53:45;5.10;1.00
18779;DHT22;9518;51.720;14.384;2023-04-03T08:56:15;4.80;1.00
18779;DHT22;9518;51.720;14.384;2023-04-03T08:58:48;4.50;1.00
18779;DHT22;9518;51.720;14.384;2023-04-03T09:01:19;4.30;1.00
18779;DHT22;9518;51.720;14.384;2023-04-03T09:03:47;4.40;1.00
18779;DHT22;9518;51.720;14.384;2023-04-03T09:06:17;4.70;1.00
18779;DHT22;9518;51.720;14.384;2023-04-03T09:08:49;5.10;1.00
18779;DHT22;9518;51.720;14.384;2023-04-03T09:11:24;4.90;1.00
18779;DHT22;9518;51.720;14.384;2023-04-03T09:13:57;4.80;1.00
18779;DHT22;9518;51.720;14.384;2023-04-03T09:16:35;4.90;1.00
18779;DHT22;9518;51.720;14.384;2023-04-03T09:19:12;5.40;1.00
18779;DHT22;9518;51.720;14.384;2023-04-03T09:21:42;5.60;1.00
18779;DHT22;9518;51.720;14.384;2023-04-03T09:24:11;6.40;1.00
18779;DHT22;9518;51.720;14.384;2023-04-03T09:26:44;7.10;1.00
18779;DHT22;9518;51.720;14.384;2023-04-03T09:29:17;7.40;1.00
18779;DHT22;9518;51.720;14.384;2023-04-03T09:31:50;7.50;1.00
18779;DHT22;9518;51.720;14.384;2023-04-03T09:34:21;7.50;1.00
18779;DHT22;9518;51.720;14.384;2023-04-03T09:36:50;7.80;1.00
18779;DHT22;9518;51.720;14.384;2023-04-03T09:39:20;8.20;1.00
18779;DHT22;9518;51.720;14.384;2023-04-03T09:42:00;8.00;1.00
18779;DHT22;9518;51.720;14.384;2023-04-03T09:44:30;7.90;1.00
18779;DHT22;9518;51.720;14.384;2023-04-03T09:46:57;7.50;1.00
18779;DHT22;9518;51.720;14.384;2023-04-03T09:49:25;7.20;1.00
18779;DHT22;9518;51.720;14.384;2023-04-03T09:51:52;7.20;1.00
18779;DHT22;9518;51.720;14.384;2023-04-03T09:54:40;7.50;1.00
18779;DHT22;9518;51.720;14.384;2023-04-03T09:57:12;7.50;1.00
18779;DHT22;9518;51.720;14.384;2023-04-03T09:59:44;7.30;1.00
18779;DHT22;9518;51.720;14.384;2023-04-03T10:02:31;6.90;1.00
18779;DHT22;9518;51.720;14.384;2023-04-03T10:04:59;6.40;1.00
18779;DHT22;9518;51.720;14.384;2023-04-03T10:07:29;6.60;1.00
18779;DHT22;9518;51.720;14.384;2023-04-03T10:09:57;6.70;1.00
18779;DHT22;9518;51.720;14.384;2023-04-03T10:12:27;6.80;1.00
18779;DHT22;9518;51.720;14.384;2023-04-03T10:14:55;6.70;1.00
18779;DHT22;9518;51.720;14.384;2023-04-03T10:17:33;6.50;1.00
18779;DHT22;9518;51.720;14.384;2023-04-03T10:20:09;7.20;1.00
18779;DHT22;9518;51.720;14.384;2023-04-03T10:22:44;7.10;1.00
18779;DHT22;9518;51.720;14.384;2023-04-03T10:25:20;7.10;1.00
18779;DHT22;9518;51.720;14.384;2023-04-03T10:27:54;7.00;1.00
18779;DHT22;9518;51.720;14.384;2023-04-03T10:30:32;6.50;1.00
18779;DHT22;9518;51.720;14.384;2023-04-03T10:33:18;6.20;1.00
18779;DHT22;9518;51.720;14.384;2023-04-03T10:35:53;6.40;1.00
18779;DHT22;9518;51.720;14.384;2023-04-03T10:38:40;7.60;1.00
18779;DHT22;9518;51.720;14.384;2023-04-03T10:41:15;8.00;1.00
18779;DHT22;9518;51.720;14.384;2023-04-03T10:43:50;7.60;1.00
18779;DHT22;9518;51.720;14.384;2023-04-03T10:46:25;7.30;1.00
18779;DHT22;9518;51.720;14.384;2023-04-03T10:49:05;7.10;1.00
18779;DHT22;9518;51.720;14.384;2023-04-03T10:51:41;6.80;1.00
18779;DHT22;9518;51.720;14.384;2023-04-03T10:54:11;6.60;1.00
18779;DHT22;9518;51.720;14.384;2023-04-03T10:56:42;6.20;1.00
18779;DHT22;9518;51.720;14.384;2023-04-03T10:59:28;6.40;1.00
18779;DHT22;9518;51.720;14.384;2023-04-03T11:01:59;6.80;1.00
18779;DHT22;9518;51.720;14.384;2023-04-03T11:04:30;6.80;1.00
18779;DHT22;9518;51.720;14.384;2023-04-03T11:07:02;6.80;1.00
18779;DHT22;9518;51.720;14.384;2023-04-03T11:09:34;6.70;1.00
18779;DHT22;9518;51.720;14.384;2023-04-03T11:12:06;6.50;1.00
18779;DHT22;9518;51.720;14.384;2023-04-03T11:14:38;6.30;1.00
18779;DHT22;9518;51.720;14.384;2023-04-03T11:17:15;6.60;1.00
18779;DHT22;9518;51.720;14.384;2023-04-03T11:19:50;6.60;1.00
18779;DHT22;9518;51.720;14.384;2023-04-03T11:22:23;6.80;1.00
18779;DHT22;9518;51.720;14.384;2023-04-03T11:24:59;6.90;1.00
18779;DHT22;9518;51.720;14.384;2023-04-03T11:27:35;6.70;1.00
18779;DHT22;9518;51.720;14.384;2023-04-03T11:30:14;6.20;1.00
18779;DHT22;9518;51.720;14.384;2023-04-03T11:35:51;5.90;1.00
18779;DHT22;9518;51.720;14.384;2023-04-03T11:38:22;5.90;1.00
18779;DHT22;9518;51.720;14.384;2023-04-03T11:40:52;6.00;1.00
18779;DHT22;9518;51.720;14.384;2023-04-03T11:43:24;6.10;1.00
18779;DHT22;9518;51.720;14.384;2023-04-03T11:45:58;6.40;1.00
18779;DHT22;9518;51.720;14.384;2023-04-03T11:51:41;6.10;1.00
18779;DHT22;9518;51.720;14.384;2023-04-03T11:54:44;6.10;1.00
18779;DHT22;9518;51.720;14.384;2023-04-03T12:00:48;6.10;1.00
18779;DHT22;9518;51.720;14.384;2023-04-03T12:03:57;6.60;1.00
18779;DHT22;9518;51.720;14.384;2023-04-03T12:06:53;6.80;1.00
18779;DHT22;9518;51.720;14.384;2023-04-03T12:12:34;7.30;1.00
18779;DHT22;9518;51.720;14.384;2023-04-03T12:15:21;7.30;1.00
18779;DHT22;9518;51.720;14.384;2023-04-03T12:17:48;7.40;1.00
18779;DHT22;9518;51.720;14.384;2023-04-03T12:23:28;7.20;1.00
18779;DHT22;9518;51.720;14.384;2023-04-03T12:26:01;7.00;1.00
18779;DHT22;9518;51.720;14.384;2023-04-03T12:28:40;7.10;1.00
18779;DHT22;9518;51.720;14.384;2023-04-03T12:31:12;6.90;1.00
18779;DHT22;9518;51.720;14.384;2023-04-03T12:33:56;6.70;1.00
18779;DHT22;9518;51.720;14.384;2023-04-03T12:36:32;6.30;1.00
18779;DHT22;9518;51.720;14.384;2023-04-03T12:39:25;6.10;1.00
18779;DHT22;9518;51.720;14.384;2023-04-03T12:42:08;6.10;1.00
18779;DHT22;9518;51.720;14.384;2023-04-03T12:44:50;6.40;1.00
18779;DHT22;9518;51.720;14.384;2023-04-03T12:47:26;6.40;1.00
18779;DHT22;9518;51.720;14.384;2023-04-03T12:49:54;6.70;1.00
18779;DHT22;9518;51.720;14.384;2023-04-03T12:54:54;6.90;1.00
18779;DHT22;9518;51.720;14.384;2023-04-03T12:57:24;6.70;1.00
18779;DHT22;9518;51.720;14.384;2023-04-03T12:59:53;6.70;1.00
18779;DHT22;9518;51.720;14.384;2023-04-03T13:02:23;6.40;1.00
18779;DHT22;9518;51.720;14.384;2023-04-03T13:04:51;6.40;1.00
18779;DHT22;9518;51.720;14.384;2023-04-03T13:07:21;6.10;1.00
18779;DHT22;9518;51.720;14.384;2023-04-03T13:09:58;5.90;1.00
18779;DHT22;9518;51.720;14.384;2023-04-03T13:12:26;5.90;1.00
18779;DHT22;9518;51.720;14.384;2023-04-03T13:14:55;6.10;1.00
18779;DHT22;9518;51.720;14.384;2023-04-03T13:17:23;6.30;1.00
18779;DHT22;9518;51.720;14.384;2023-04-03T13:19:51;6.50;1.00
18779;DHT22;9518;51.720;14.384;2023-04-03T13:22:28;6.60;1.00
18779;DHT22;9518;51.720;14.384;2023-04-03T13:24:59;6.80;1.00
18779;DHT22;9518;51.720;14.384;2023-04-03T13:27:30;6.90;1.00
18779;DHT22;9518;51.720;14.384;2023-04-03T13:29:59;6.70;1.00
18779;DHT22;9518;51.720;14.384;2023-04-03T13:32:29;6.40;1.00
18779;DHT22;9518;51.720;14.384;2023-04-03T13:34:58;6.30;1.00
18779;DHT22;9518;51.720;14.384;2023-04-03T13:37:27;6.10;1.00
18779;DHT22;9518;51.720;14.384;2023-04-03T13:40:08;6.10;1.00
18779;DHT22;9518;51.720;14.384;2023-04-03T13:42:38;6.00;1.00
18779;DHT22;9518;51.720;14.384;2023-04-03T13:45:11;5.90;1.00
18779;DHT22;9518;51.720;14.384;2023-04-03T13:47:43;6.10;1.00
18779;DHT22;9518;51.720;14.384;2023-04-03T13:50:16;6.00;1.00
18779;DHT22;9518;51.720;14.384;2023-04-03T13:52:46;6.00;1.00
18779;DHT22;9518;51.720;14.384;2023-04-03T13:55:22;6.10;1.00
18779;DHT22;9518;51.720;14.384;2023-04-03T13:57:54;6.10;1.00
18779;DHT22;9518;51.720;14.384;2023-04-03T14:00:29;6.00;1.00
18779;DHT22;9518;51.720;14.384;2023-04-03T14:02:57;6.10;1.00
18779;DHT22;9518;51.720;14.384;2023-04-03T14:05:25;6.40;1.00
18779;DHT22;9518;51.720;14.384;2023-04-03T14:07:53;6.80;1.00
18779;DHT22;9518;51.720;14.384;2023-04-03T14:10:22;7.60;1.00
18779;DHT22;9518;51.720;14.384;2023-04-03T14:12:49;7.90;1.00
18779;DHT22;9518;51.720;14.384;2023-04-03T14:15:19;7.70;1.00
18779;DHT22;9518;51.720;14.384;2023-04-03T14:17:49;7.00;1.00
18779;DHT22;9518;51.720;14.384;2023-04-03T14:20:19;6.50;1.00
18779;DHT22;9518;51.720;14.384;2023-04-03T14:22:47;6.10;1.00
18779;DHT22;9518;51.720;14.384;2023-04-03T14:25:15;5.90;1.00
18779;DHT22;9518;51.720;14.384;2023-04-03T14:27:46;5.70;1.00
18779;DHT22;9518;51.720;14.384;2023-04-03T14:30:18;5.50;1.00
18779;DHT22;9518;51.720;14.384;2023-04-03T14:32:46;5.40;1.00
18779;DHT22;9518;51.720;14.384;2023-04-03T14:35:13;5.60;1.00
18779;DHT22;9518;51.720;14.384;2023-04-03T14:37:41;5.90;1.00
18779;DHT22;9518;51.720;14.384;2023-04-03T14:40:11;5.90;1.00
18779;DHT22;9518;51.720;14.384;2023-04-03T14:42:39;5.90;1.00
18779;DHT22;9518;51.720;14.384;2023-04-03T14:45:10;5.70;1.00
18779;DHT22;9518;51.720;14.384;2023-04-03T14:47:40;6.10;1.00
18779;DHT22;9518;51.720;14.384;2023-04-03T14:50:15;7.40;1.00
18779;DHT22;9518;51.720;14.384;2023-04-03T14:52:43;10.00;1.00
18779;DHT22;9518;51.720;14.384;2023-04-03T14:55:12;11.10;1.00
18779;DHT22;9518;51.720;14.384;2023-04-03T14:57:41;10.70;1.00
18779;DHT22;9518;51.720;14.384;2023-04-03T15:00:14;9.50;1.00
18779;DHT22;9518;51.720;14.384;2023-04-03T15:02:41;8.50;1.00
18779;DHT22;9518;51.720;14.384;2023-04-03T15:05:10;9.30;1.00
18779;DHT22;9518;51.720;14.384;2023-04-03T15:07:39;10.90;1.00
18779;DHT22;9518;51.720;14.384;2023-04-03T15:10:16;10.90;1.00
18779;DHT22;9518;51.720;14.384;2023-04-03T15:12:44;11.40;1.00
18779;DHT22;9518;51.720;14.384;2023-04-03T15:15:13;12.20;1.00
18779;DHT22;9518;51.720;14.384;2023-04-03T15:17:41;13.30;1.00
18779;DHT22;9518;51.720;14.384;2023-04-03T15:20:13;13.70;1.00
18779;DHT22;9518;51.720;14.384;2023-04-03T15:22:41;12.30;1.00
18779;DHT22;9518;51.720;14.384;2023-04-03T15:25:08;11.00;1.00
18779;DHT22;9518;51.720;14.384;2023-04-03T15:27:36;9.60;1.00
18779;DHT22;9518;51.720;14.384;2023-04-03T15:30:04;10.30;1.00
18779;DHT22;9518;51.720;14.384;2023-04-03T15:32:33;11.40;1.00
18779;DHT22;9518;51.720;14.384;2023-04-03T15:35:01;11.90;1.00
18779;DHT22;9518;51.720;14.384;2023-04-03T15:37:28;13.40;1.00
18779;DHT22;9518;51.720;14.384;2023-04-03T15:39:55;14.50;1.00
18779;DHT22;9518;51.720;14.384;2023-04-03T15:42:22;16.10;1.00
18779;DHT22;9518;51.720;14.384;2023-04-03T15:44:49;15.70;1.00
18779;DHT22;9518;51.720;14.384;2023-04-03T15:47:16;15.00;1.00
18779;DHT22;9518;51.720;14.384;2023-04-03T15:49:45;13.50;1.00
18779;DHT22;9518;51.720;14.384;2023-04-03T15:52:12;11.60;1.00
18779;DHT22;9518;51.720;14.384;2023-04-03T15:54:40;9.80;1.00
18779;DHT22;9518;51.720;14.384;2023-04-03T15:57:07;8.60;1.00
18779;DHT22;9518;51.720;14.384;2023-04-03T15:59:34;7.90;1.00
18779;DHT22;9518;51.720;14.384;2023-04-03T16:02:01;7.40;1.00
18779;DHT22;9518;51.720;14.384;2023-04-03T16:04:30;7.00;1.00
18779;DHT22;9518;51.720;14.384;2023-04-03T16:07:00;6.90;1.00
18779;DHT22;9518;51.720;14.384;2023-04-03T16:09:28;6.20;1.00
18779;DHT22;9518;51.720;14.384;2023-04-03T16:11:55;5.90;1.00
18779;DHT22;9518;51.720;14.384;2023-04-03T16:14:22;5.70;1.00
18779;DHT22;9518;51.720;14.384;2023-04-03T16:16:50;5.50;1.00
18779;DHT22;9518;51.720;14.384;2023-04-03T16:19:17;5.30;1.00
18779;DHT22;9518;51.720;14.384;2023-04-03T16:21:44;5.20;1.00
18779;DHT22;9518;51.720;14.384;2023-04-03T16:24:13;5.20;1.00
18779;DHT22;9518;51.720;14.384;2023-04-03T16:26:42;5.10;1.00
18779;DHT22;9518;51.720;14.384;2023-04-03T16:29:09;5.30;1.00